Yellow Mule RAWS (NWS)

Elevation
9200ft
Aggregated by Synoptic Data
Date/Time Wind Direction Wind Speed knots Wind Gust knots RH % Accumulated Precip Inches Air Temp Fahrenheit
2024-07-17 06:04 3 4 54 7.72 53
2024-07-17 05:04 1 6 48 7.72 54
2024-07-17 04:04 6 9 56 7.72 52
2024-07-17 03:04 5 14 56 7.72 53
2024-07-17 02:04 10 17 53 7.72 54
2024-07-17 01:04 10 16 45 7.72 56
2024-07-17 00:04 4 7 31 7.72 59
2024-07-16 23:04 3 5 31 7.72 57
2024-07-16 22:04 3 8 33 7.72 58
2024-07-16 21:04 5 9 33 7.72 60
2024-07-16 20:04 6 11 31 7.72 64
2024-07-16 19:04 7 12 21 7.72 68
2024-07-16 18:04 8 13 24 7.72 69
2024-07-16 17:04 6 11 21 7.72 70
2024-07-16 16:04 4 14 24 7.72 69
2024-07-16 15:04 8 16 27 7.72 68
2024-07-16 14:04 7 16 28 7.72 68
2024-07-16 13:04 6 11 27 7.72 66
2024-07-16 12:04 3 12 29 7.72 67
2024-07-16 11:04 5 10 29 7.72 69
2024-07-16 10:04 4 8 29 7.72 70
2024-07-16 09:04 3 6 31 7.72 63
2024-07-16 08:04 3 5 32 7.72 60
2024-07-16 07:04 3 4 28 7.72 57
2024-07-16 06:04 3 6 30 7.72 53
2024-07-16 05:04 5 6 31 7.72 52
2024-07-16 04:04 3 5 30 7.72 54
2024-07-16 03:04 3 5 31 7.72 54
2024-07-16 02:04 2 3 32 7.72 54
2024-07-16 01:04 3 4 32 7.72 55
2024-07-16 00:04 3 7 36 7.72 54
2024-07-15 23:04 5 11 33 7.72 56
2024-07-15 22:04 10 16 29 7.72 60
2024-07-15 21:04 9 15 25 7.72 62
2024-07-15 20:04 7 16 29 7.72 62
2024-07-15 19:04 5 20 33 7.72 65
2024-07-15 18:04 8 18 30 7.72 67
2024-07-15 17:04 4 16 36 7.72 65
2024-07-15 16:04 9 18 35 7.72 66
2024-07-15 15:04 8 17 37 7.72 65
2024-07-15 14:04 12 20 39 7.72 62
2024-07-15 13:04 9 18 37 7.72 62
2024-07-15 12:04 9 16 39 7.72 62
2024-07-15 11:04 10 15 40 7.72 63
2024-07-15 10:04 10 13 42 7.72 59
2024-07-15 09:04 6 10 45 7.72 56
2024-07-15 08:04 7 10 46 7.72 55
2024-07-15 07:04 6 8 47 7.72 54
2024-07-15 06:04 5 8 44 7.72 55